South Londonderry, Vermont
Current Conditions -  °F | °C
As of 6:54 PM on Monday 20 Oct 2014 (Local Time) from KVSF Reporting Station
Overcast Overcast  
Wind Chill: 47°   Ceiling: 8000
Heat Index: 47°   Visibility: 10mi
Dew Point: 39°   Wind: 0mph
Humidity: 74%   Direction: NA
Pressure: 29.95"   Gusts: NA
Location:  43.15°N, 72.84°W
Report Text: KVSF 202254Z AUTO 00000KT 10SM BKN080 OVC110 08/04 A2995 RMK AO2 SLP147 T00830039
Loading
Personal Weather Stations






























Interactive Weather Map New forecast layout! Learn more

10-Day Weather Forecast

Advertisements
Track Severe Weather on mobile